Frontier Kotobuki — 3EXC5 — position and weather

sailwx.info

Track history (hours):
 
Tides and Currents Weather Stations Pressure Air Temp Water Temp Dewpoint Dewpoint Depression Visibility Wind Speed Wind Dir Waves Ship Positions

Frontier Kotobuki

Last reported at 2018-May-13 21:21 UTC. Time now 2018-May-25 22:09 UTC.
Position N 01°34' E 104°39'.
Warning: this ship's position is 12 days out of date.

Length 290 m; draft 11.4 m.

Type: Cargo ship. MMSI: 355036000.

Date/timePositionNaut miles runAvg speedWind from/ knotsBaromVisibWave heightAir tempDewpointWater temp
2018-May-13 21:21N 01°34' E 104°39'513.0
2018-May-13 20:59N 01°31' E 104°35'713.9
2018-May-13 20:30N 01°27' E 104°30'914.2
2018-May-13 19:53N 01°20' E 104°24'513.1
2018-May-13 19:30N 01°17' E 104°20'713.9
2018-May-13 18:59N 01°16' E 104°12'511.3
2018-May-13 18:31N 01°16' E 104°07'4 8.0
2018-May-13 17:59N 01°17' E 104°03'2 4.4
2018-May-13 17:30N 01°17' E 104°01'0 0.3
2018-May-13 16:57N 01°17' E 104°01'0 0.4
2018-May-13 16:27N 01°17' E 104°01'0 0.4
2018-May-13 15:54N 01°17' E 104°01'0 0.0
2018-May-13 15:28N 01°17' E 104°01'0 0.0
2018-May-13 14:57N 01°17' E 104°01'0 0.0
2018-May-13 14:19N 01°17' E 104°01'0 0.0
2018-May-13 13:57N 01°17' E 104°01'0 0.0
2018-May-13 13:27N 01°17' E 104°01'0 0.0
2018-May-13 12:57N 01°17' E 104°01'0 0.1
2018-May-13 12:27N 01°17' E 104°01'0 0.0
2018-May-13 11:57N 01°17' E 104°01'0 0.1
2018-May-13 11:28N 01°17' E 104°01'0 0.0
2018-May-13 10:57N 01°17' E 104°01'0 0.0
2018-May-13 10:30N 01°17' E 104°01'0 0.0
2018-May-13 09:54N 01°17' E 104°01'0 0.3
2018-May-13 09:27N 01°17' E 104°01'0 0.4
2018-May-13 08:57N 01°17' E 104°01'0 0.1
2018-May-13 08:28N 01°17' E 104°01'2 3.7
2018-May-13 08:00N 01°16' E 104°03'3 5.2
2018-May-13 07:30N 01°17' E 104°05'4 7.5
2018-May-13 06:59N 01°17' E 104°09'3 5.8
2018-May-13 06:30N 01°17' E 104°12'4 6.8
2018-May-13 05:58N 01°18' E 104°15'3 6.6
2018-May-13 05:30N 01°19' E 104°18'610.7
2018-May-13 04:59N 01°22' E 104°23'611.1
2018-May-13 04:29N 01°25' E 104°27'611.5
2018-May-13 03:55N 01°30' E 104°32'1011.5
2018-May-13 03:05N 01°38' E 104°36'213.7
2018-May-13 02:57N 01°40' E 104°37'812.5
2018-May-13 02:17N 01°47' E 104°41'912.3
2018-May-13 01:32N 01°56' E 104°44'  
2018-May-08 08:55N 22°02' E 119°35'613.4
2018-May-08 08:30N 22°07' E 119°37'713.7
2018-May-08 07:58N 22°14' E 119°39'1013.9
2018-May-08 07:15N 22°24' E 119°42'413.7
2018-May-08 06:59N 22°27' E 119°44'813.5
2018-May-08 06:25N 22°35' E 119°45'613.4
2018-May-08 05:58N 22°41' E 119°47'612.9
2018-May-08 05:30N 22°47' E 119°47'612.7
2018-May-08 05:00N 22°53' E 119°47'2611.9
2018-May-08 02:47N 23°19' E 119°51'311.9
2018-May-08 02:30N 23°22' E 119°52'712.2
2018-May-08 01:55N 23°29' E 119°53'512.2
2018-May-08 01:30N 23°34' E 119°54'612.3
2018-May-08 01:00N 23°41' E 119°54'612.0
2018-May-08 00:30N 23°46' E 119°56'43110.7
2018-May-06 08:06N 30°32' E 122°39'113.3
2018-May-06 08:00N 30°32' E 122°38'  
2018-May-04 00:06N 30°29' E 122°17'0 0.0
2018-May-03 23:57N 30°29' E 122°17'0 0.0
2018-May-03 23:30N 30°29' E 122°17'0 0.0
2018-May-03 21:51N 30°29' E 122°17'  
Track history (hours):
 
Tides and Currents Weather Stations Pressure Air Temp Water Temp Dewpoint Dewpoint Depression Visibility Wind Speed Wind Dir Waves Ship Positions

Frontier Kotobuki

Last reported at 2018-May-13 21:21 UTC. Time now 2018-May-25 22:09 UTC.
Position N 01°34' E 104°39'.
Warning: this ship's position is 12 days out of date.

Length 290 m; draft 11.4 m.

Type: Cargo ship. MMSI: 355036000.

Date/timePositionNaut miles runAvg speedWind from/ knotsBaromVisibWave heightAir tempDewpointWater temp
2018-May-13 21:21N 01°34' E 104°39'513.0
2018-May-13 20:59N 01°31' E 104°35'713.9
2018-May-13 20:30N 01°27' E 104°30'914.2
2018-May-13 19:53N 01°20' E 104°24'513.1
2018-May-13 19:30N 01°17' E 104°20'713.9
2018-May-13 18:59N 01°16' E 104°12'511.3
2018-May-13 18:31N 01°16' E 104°07'4 8.0
2018-May-13 17:59N 01°17' E 104°03'2 4.4
2018-May-13 17:30N 01°17' E 104°01'0 0.3
2018-May-13 16:57N 01°17' E 104°01'0 0.4
2018-May-13 16:27N 01°17' E 104°01'0 0.4
2018-May-13 15:54N 01°17' E 104°01'0 0.0
2018-May-13 15:28N 01°17' E 104°01'0 0.0
2018-May-13 14:57N 01°17' E 104°01'0 0.0
2018-May-13 14:19N 01°17' E 104°01'0 0.0
2018-May-13 13:57N 01°17' E 104°01'0 0.0
2018-May-13 13:27N 01°17' E 104°01'0 0.0
2018-May-13 12:57N 01°17' E 104°01'0 0.1
2018-May-13 12:27N 01°17' E 104°01'0 0.0
2018-May-13 11:57N 01°17' E 104°01'0 0.1
2018-May-13 11:28N 01°17' E 104°01'0 0.0
2018-May-13 10:57N 01°17' E 104°01'0 0.0
2018-May-13 10:30N 01°17' E 104°01'0 0.0
2018-May-13 09:54N 01°17' E 104°01'0 0.3
2018-May-13 09:27N 01°17' E 104°01'0 0.4
2018-May-13 08:57N 01°17' E 104°01'0 0.1
2018-May-13 08:28N 01°17' E 104°01'2 3.7
2018-May-13 08:00N 01°16' E 104°03'3 5.2
2018-May-13 07:30N 01°17' E 104°05'4 7.5
2018-May-13 06:59N 01°17' E 104°09'3 5.8
2018-May-13 06:30N 01°17' E 104°12'4 6.8
2018-May-13 05:58N 01°18' E 104°15'3 6.6
2018-May-13 05:30N 01°19' E 104°18'610.7
2018-May-13 04:59N 01°22' E 104°23'611.1
2018-May-13 04:29N 01°25' E 104°27'611.5
2018-May-13 03:55N 01°30' E 104°32'1011.5
2018-May-13 03:05N 01°38' E 104°36'213.7
2018-May-13 02:57N 01°40' E 104°37'812.5
2018-May-13 02:17N 01°47' E 104°41'912.3
2018-May-13 01:32N 01°56' E 104°44'  
2018-May-08 08:55N 22°02' E 119°35'613.4
2018-May-08 08:30N 22°07' E 119°37'713.7
2018-May-08 07:58N 22°14' E 119°39'1013.9
2018-May-08 07:15N 22°24' E 119°42'413.7
2018-May-08 06:59N 22°27' E 119°44'813.5
2018-May-08 06:25N 22°35' E 119°45'613.4
2018-May-08 05:58N 22°41' E 119°47'612.9
2018-May-08 05:30N 22°47' E 119°47'612.7
2018-May-08 05:00N 22°53' E 119°47'2611.9
2018-May-08 02:47N 23°19' E 119°51'311.9
2018-May-08 02:30N 23°22' E 119°52'712.2
2018-May-08 01:55N 23°29' E 119°53'512.2
2018-May-08 01:30N 23°34' E 119°54'612.3
2018-May-08 01:00N 23°41' E 119°54'612.0
2018-May-08 00:30N 23°46' E 119°56'43110.7
2018-May-06 08:06N 30°32' E 122°39'113.3
2018-May-06 08:00N 30°32' E 122°38'  
2018-May-04 00:06N 30°29' E 122°17'0 0.0
2018-May-03 23:57N 30°29' E 122°17'0 0.0
2018-May-03 23:30N 30°29' E 122°17'0 0.0
2018-May-03 21:51N 30°29' E 122°17'  

Dump ship's entire track history